sensor_id;sensor_type;location;lat;lon;timestamp;pressure;altitude;pressure_sealevel;temperature;humidity
61682;BME280;47577;43.610;25.010;2023-03-23T00:02:26;100620.81;;;9.66;95.12
61682;BME280;47577;43.610;25.010;2023-03-23T00:04:52;100614.28;;;9.78;96.05
61682;BME280;47577;43.610;25.010;2023-03-23T00:07:19;100605.47;;;9.78;94.88
61682;BME280;47577;43.610;25.010;2023-03-23T00:09:47;100605.09;;;9.92;95.01
61682;BME280;47577;43.610;25.010;2023-03-23T00:12:12;100607.84;;;9.88;94.48
61682;BME280;47577;43.610;25.010;2023-03-23T00:14:40;100602.69;;;9.82;95.32
61682;BME280;47577;43.610;25.010;2023-03-23T00:17:09;100603.56;;;9.83;95.43
61682;BME280;47577;43.610;25.010;2023-03-23T00:19:39;100599.09;;;9.85;94.33
61682;BME280;47577;43.610;25.010;2023-03-23T00:22:14;100595.16;;;9.98;94.68
61682;BME280;47577;43.610;25.010;2023-03-23T00:24:40;100598.72;;;9.97;94.41
61682;BME280;47577;43.610;25.010;2023-03-23T00:27:06;100596.75;;;10.04;93.84
61682;BME280;47577;43.610;25.010;2023-03-23T00:29:31;100595.69;;;10.11;92.74
61682;BME280;47577;43.610;25.010;2023-03-23T00:31:57;100592.88;;;9.84;94.40
61682;BME280;47577;43.610;25.010;2023-03-23T00:34:23;100599.41;;;10.04;93.44
61682;BME280;47577;43.610;25.010;2023-03-23T00:36:53;100608.03;;;10.12;93.71
61682;BME280;47577;43.610;25.010;2023-03-23T00:39:22;100588.50;;;10.15;93.36
61682;BME280;47577;43.610;25.010;2023-03-23T00:41:49;100587.59;;;10.16;92.63
61682;BME280;47577;43.610;25.010;2023-03-23T00:44:14;100591.03;;;10.19;92.67
61682;BME280;47577;43.610;25.010;2023-03-23T00:46:45;100592.22;;;10.09;93.32
61682;BME280;47577;43.610;25.010;2023-03-23T00:49:12;100581.47;;;10.12;92.79
61682;BME280;47577;43.610;25.010;2023-03-23T00:51:37;100583.28;;;10.12;93.00
61682;BME280;47577;43.610;25.010;2023-03-23T00:54:03;100580.41;;;10.19;92.58
61682;BME280;47577;43.610;25.010;2023-03-23T00:56:29;100576.88;;;10.19;91.42
61682;BME280;47577;43.610;25.010;2023-03-23T00:58:54;100582.84;;;10.27;92.31
61682;BME280;47577;43.610;25.010;2023-03-23T01:01:20;100580.84;;;10.35;91.39
61682;BME280;47577;43.610;25.010;2023-03-23T01:03:45;100578.00;;;10.41;91.41
61682;BME280;47577;43.610;25.010;2023-03-23T01:06:14;100586.03;;;10.40;91.22
61682;BME280;47577;43.610;25.010;2023-03-23T01:08:39;100577.88;;;10.45;90.70
61682;BME280;47577;43.610;25.010;2023-03-23T01:11:10;100577.84;;;10.46;90.89
61682;BME280;47577;43.610;25.010;2023-03-23T01:13:36;100580.31;;;10.52;90.51
61682;BME280;47577;43.610;25.010;2023-03-23T01:16:02;100573.13;;;10.56;90.43
61682;BME280;47577;43.610;25.010;2023-03-23T01:18:27;100577.44;;;10.60;90.58
61682;BME280;47577;43.610;25.010;2023-03-23T01:20:53;100574.69;;;10.63;90.38
61682;BME280;47577;43.610;25.010;2023-03-23T01:23:18;100574.63;;;10.65;90.01
61682;BME280;47577;43.610;25.010;2023-03-23T01:25:43;100575.50;;;10.65;89.93
61682;BME280;47577;43.610;25.010;2023-03-23T01:28:10;100570.19;;;10.65;89.37
61682;BME280;47577;43.610;25.010;2023-03-23T01:30:36;100575.34;;;10.70;89.13
61682;BME280;47577;43.610;25.010;2023-03-23T01:33:02;100576.13;;;10.73;89.35
61682;BME280;47577;43.610;25.010;2023-03-23T01:35:27;100571.63;;;10.75;89.00
61682;BME280;47577;43.610;25.010;2023-03-23T01:37:53;100574.22;;;10.77;89.50
61682;BME280;47577;43.610;25.010;2023-03-23T01:40:19;100565.59;;;10.70;89.31
61682;BME280;47577;43.610;25.010;2023-03-23T01:42:45;100558.59;;;10.68;89.52
61682;BME280;47577;43.610;25.010;2023-03-23T01:45:20;100567.19;;;10.76;89.30
61682;BME280;47577;43.610;25.010;2023-03-23T01:47:46;100574.41;;;10.72;89.38
61682;BME280;47577;43.610;25.010;2023-03-23T01:50:15;100573.31;;;10.78;88.92
61682;BME280;47577;43.610;25.010;2023-03-23T01:52:41;100571.34;;;10.85;88.73
61682;BME280;47577;43.610;25.010;2023-03-23T01:55:07;100574.69;;;10.33;90.62
61682;BME280;47577;43.610;25.010;2023-03-23T01:57:32;100568.25;;;10.42;90.77
61682;BME280;47577;43.610;25.010;2023-03-23T01:59:59;100578.56;;;10.53;90.22
61682;BME280;47577;43.610;25.010;2023-03-23T02:02:32;100576.94;;;10.47;90.33
61682;BME280;47577;43.610;25.010;2023-03-23T02:05:01;100576.00;;;10.50;89.82
61682;BME280;47577;43.610;25.010;2023-03-23T02:07:28;100578.66;;;10.50;89.85
61682;BME280;47577;43.610;25.010;2023-03-23T02:09:53;100586.41;;;10.56;89.74
61682;BME280;47577;43.610;25.010;2023-03-23T02:12:18;100581.56;;;10.40;90.41
61682;BME280;47577;43.610;25.010;2023-03-23T02:14:44;100580.56;;;10.45;90.82
61682;BME280;47577;43.610;25.010;2023-03-23T02:22:20;100588.94;;;10.60;90.16
61682;BME280;47577;43.610;25.010;2023-03-23T02:24:57;100586.22;;;10.62;90.21
61682;BME280;47577;43.610;25.010;2023-03-23T02:29:56;100592.22;;;10.69;90.41
61682;BME280;47577;43.610;25.010;2023-03-23T02:35:20;100600.94;;;10.74;89.69
61682;BME280;47577;43.610;25.010;2023-03-23T02:38:22;100597.31;;;10.76;89.08
61682;BME280;47577;43.610;25.010;2023-03-23T02:40:40;100604.28;;;10.81;88.93
61682;BME280;47577;43.610;25.010;2023-03-23T02:43:08;100599.78;;;10.83;88.82
61682;BME280;47577;43.610;25.010;2023-03-23T02:45:34;100597.88;;;10.86;88.99
61682;BME280;47577;43.610;25.010;2023-03-23T02:48:02;100602.28;;;10.87;88.82
61682;BME280;47577;43.610;25.010;2023-03-23T02:50:29;100602.28;;;10.87;88.98
61682;BME280;47577;43.610;25.010;2023-03-23T02:52:55;100609.34;;;10.88;89.41
61682;BME280;47577;43.610;25.010;2023-03-23T02:55:23;100610.19;;;10.90;88.46
61682;BME280;47577;43.610;25.010;2023-03-23T02:57:50;100615.56;;;10.89;88.40
61682;BME280;47577;43.610;25.010;2023-03-23T03:00:17;100623.56;;;10.87;88.76
61682;BME280;47577;43.610;25.010;2023-03-23T03:02:44;100618.25;;;10.87;88.51
61682;BME280;47577;43.610;25.010;2023-03-23T03:10:43;100624.44;;;10.88;88.54
61682;BME280;47577;43.610;25.010;2023-03-23T03:13:17;100622.59;;;10.90;88.59
61682;BME280;47577;43.610;25.010;2023-03-23T03:15:47;100621.72;;;10.89;87.88
61682;BME280;47577;43.610;25.010;2023-03-23T03:18:21;100624.44;;;10.88;88.35
61682;BME280;47577;43.610;25.010;2023-03-23T03:20:51;100626.19;;;10.89;88.37
61682;BME280;47577;43.610;25.010;2023-03-23T03:23:19;100629.75;;;10.88;87.16
61682;BME280;47577;43.610;25.010;2023-03-23T03:25:46;100626.25;;;10.87;87.29
61682;BME280;47577;43.610;25.010;2023-03-23T03:28:16;100629.81;;;10.86;87.60
61682;BME280;47577;43.610;25.010;2023-03-23T03:30:42;100638.31;;;10.69;87.95
61682;BME280;47577;43.610;25.010;2023-03-23T03:33:09;100630.25;;;10.72;88.04
61682;BME280;47577;43.610;25.010;2023-03-23T03:35:37;100637.91;;;10.53;88.60
61682;BME280;47577;43.610;25.010;2023-03-23T03:38:06;100636.06;;;10.55;89.04
61682;BME280;47577;43.610;25.010;2023-03-23T03:40:33;100636.75;;;10.62;89.58
61682;BME280;47577;43.610;25.010;2023-03-23T03:42:58;100634.84;;;10.66;88.85
61682;BME280;47577;43.610;25.010;2023-03-23T03:45:24;100637.38;;;10.70;89.59
61682;BME280;47577;43.610;25.010;2023-03-23T03:47:50;100644.31;;;10.76;89.10
61682;BME280;47577;43.610;25.010;2023-03-23T03:50:15;100649.56;;;10.79;88.31
61682;BME280;47577;43.610;25.010;2023-03-23T03:52:41;100648.66;;;10.78;88.18
61682;BME280;47577;43.610;25.010;2023-03-23T03:55:07;100646.84;;;10.81;88.04
61682;BME280;47577;43.610;25.010;2023-03-23T03:57:34;100647.59;;;10.84;88.67
61682;BME280;47577;43.610;25.010;2023-03-23T04:00:00;100644.94;;;10.84;87.96
61682;BME280;47577;43.610;25.010;2023-03-23T04:02:25;100646.66;;;10.85;88.40
61682;BME280;47577;43.610;25.010;2023-03-23T04:04:50;100646.66;;;10.85;88.08
61682;BME280;47577;43.610;25.010;2023-03-23T04:07:19;100650.41;;;10.79;87.61
61682;BME280;47577;43.610;25.010;2023-03-23T04:09:46;100640.03;;;10.70;88.03
61682;BME280;47577;43.610;25.010;2023-03-23T04:12:13;100641.94;;;10.67;88.20
61682;BME280;47577;43.610;25.010;2023-03-23T04:14:38;100652.63;;;10.65;88.53
61682;BME280;47577;43.610;25.010;2023-03-23T04:17:04;100651.72;;;10.66;88.50
61682;BME280;47577;43.610;25.010;2023-03-23T04:19:32;100651.66;;;10.68;89.20
61682;BME280;47577;43.610;25.010;2023-03-23T04:21:58;100645.31;;;10.72;88.71
61682;BME280;47577;43.610;25.010;2023-03-23T04:24:24;100644.63;;;10.65;88.55
61682;BME280;47577;43.610;25.010;2023-03-23T04:26:49;100645.50;;;10.66;88.57
61682;BME280;47577;43.610;25.010;2023-03-23T04:29:17;100643.81;;;10.63;88.88
61682;BME280;47577;43.610;25.010;2023-03-23T04:31:44;100653.50;;;10.64;89.31
61682;BME280;47577;43.610;25.010;2023-03-23T04:34:10;100653.50;;;10.64;89.38
61682;BME280;47577;43.610;25.010;2023-03-23T04:36:38;100652.63;;;10.65;89.39
61682;BME280;47577;43.610;25.010;2023-03-23T04:39:04;100655.31;;;10.64;89.24
61682;BME280;47577;43.610;25.010;2023-03-23T04:41:32;100666.94;;;10.61;89.01
61682;BME280;47577;43.610;25.010;2023-03-23T04:43:57;100666.81;;;10.64;89.46
61682;BME280;47577;43.610;25.010;2023-03-23T04:46:28;100664.88;;;10.71;88.73
61682;BME280;47577;43.610;25.010;2023-03-23T04:48:54;100664.66;;;10.77;88.89
61682;BME280;47577;43.610;25.010;2023-03-23T04:51:19;100667.22;;;10.80;89.16
61682;BME280;47577;43.610;25.010;2023-03-23T04:53:45;100671.72;;;10.78;88.92
61682;BME280;47577;43.610;25.010;2023-03-23T04:56:10;100670.88;;;10.77;89.30
61682;BME280;47577;43.610;25.010;2023-03-23T04:58:39;100675.28;;;10.77;89.74
61682;BME280;47577;43.610;25.010;2023-03-23T05:01:04;100671.91;;;10.72;89.46
61682;BME280;47577;43.610;25.010;2023-03-23T05:03:30;100673.03;;;10.65;89.38
61682;BME280;47577;43.610;25.010;2023-03-23T05:05:55;100680.06;;;10.66;90.08
61682;BME280;47577;43.610;25.010;2023-03-23T05:08:22;100685.38;;;10.66;89.99
61682;BME280;47577;43.610;25.010;2023-03-23T05:10:54;100676.59;;;10.64;90.48
61682;BME280;47577;43.610;25.010;2023-03-23T05:13:20;100679.16;;;10.67;90.05
61682;BME280;47577;43.610;25.010;2023-03-23T05:15:46;100678.34;;;10.65;89.88
61682;BME280;47577;43.610;25.010;2023-03-23T05:18:12;100677.41;;;10.66;90.05
61682;BME280;47577;43.610;25.010;2023-03-23T05:20:37;100677.38;;;10.67;90.17
61682;BME280;47577;43.610;25.010;2023-03-23T05:23:03;100680.91;;;10.68;89.20
61682;BME280;47577;43.610;25.010;2023-03-23T05:25:28;100685.25;;;10.70;89.64
61682;BME280;47577;43.610;25.010;2023-03-23T05:27:53;100680.81;;;10.71;90.13
61682;BME280;47577;43.610;25.010;2023-03-23T05:30:19;100678.16;;;10.71;89.07
61682;BME280;47577;43.610;25.010;2023-03-23T05:32:45;100693.06;;;10.76;89.26
61682;BME280;47577;43.610;25.010;2023-03-23T05:35:15;100690.44;;;10.75;88.77
61682;BME280;47577;43.610;25.010;2023-03-23T05:37:41;100688.56;;;10.78;89.13
61682;BME280;47577;43.610;25.010;2023-03-23T05:40:06;100686.88;;;10.76;89.60
61682;BME280;47577;43.610;25.010;2023-03-23T05:42:32;100694.84;;;10.76;89.84
61682;BME280;47577;43.610;25.010;2023-03-23T05:44:58;100692.19;;;10.76;89.84
61682;BME280;47577;43.610;25.010;2023-03-23T05:47:24;100692.09;;;10.79;89.79
61682;BME280;47577;43.610;25.010;2023-03-23T05:49:50;100691.06;;;10.83;89.59
61682;BME280;47577;43.610;25.010;2023-03-23T05:52:17;100695.44;;;10.86;90.54
61682;BME280;47577;43.610;25.010;2023-03-23T05:54:42;100686.56;;;10.85;89.85
61682;BME280;47577;43.610;25.010;2023-03-23T05:57:07;100686.66;;;10.84;89.12
61682;BME280;47577;43.610;25.010;2023-03-23T05:59:34;100682.25;;;10.83;89.60
61682;BME280;47577;43.610;25.010;2023-03-23T06:01:59;100690.13;;;10.86;90.02
61682;BME280;47577;43.610;25.010;2023-03-23T06:04:25;100687.13;;;10.96;89.97
61682;BME280;47577;43.610;25.010;2023-03-23T06:06:52;100689.53;;;11.04;88.84
61682;BME280;47577;43.610;25.010;2023-03-23T06:09:18;100687.50;;;11.12;88.54
61682;BME280;47577;43.610;25.010;2023-03-23T06:11:44;100694.41;;;11.20;88.91
61682;BME280;47577;43.610;25.010;2023-03-23T06:14:10;100693.50;;;11.19;87.97
61682;BME280;47577;43.610;25.010;2023-03-23T06:16:37;100692.66;;;11.19;87.79
61682;BME280;47577;43.610;25.010;2023-03-23T06:19:03;100697.84;;;11.23;87.40
61682;BME280;47577;43.610;25.010;2023-03-23T06:21:32;100688.03;;;11.24;87.60
61682;BME280;47577;43.610;25.010;2023-03-23T06:23:58;100703.06;;;11.26;87.87
61682;BME280;47577;43.610;25.010;2023-03-23T06:26:35;100704.44;;;11.38;88.01
61682;BME280;47577;43.610;25.010;2023-03-23T06:29:02;100703.13;;;11.51;88.32
61682;BME280;47577;43.610;25.010;2023-03-23T06:31:27;100708.28;;;11.56;89.10
61682;BME280;47577;43.610;25.010;2023-03-23T06:33:53;100711.84;;;11.57;86.76
61682;BME280;47577;43.610;25.010;2023-03-23T06:36:18;100715.13;;;11.65;87.40
61682;BME280;47577;43.610;25.010;2023-03-23T06:38:44;100713.31;;;11.65;86.04
61682;BME280;47577;43.610;25.010;2023-03-23T06:41:10;100712.31;;;11.69;86.41
61682;BME280;47577;43.610;25.010;2023-03-23T06:43:36;100723.28;;;11.60;85.51
61682;BME280;47577;43.610;25.010;2023-03-23T06:46:04;100720.19;;;11.73;86.05
61682;BME280;47577;43.610;25.010;2023-03-23T06:48:30;100725.91;;;11.87;86.33
61682;BME280;47577;43.610;25.010;2023-03-23T06:50:55;100728.47;;;11.90;87.36
61682;BME280;47577;43.610;25.010;2023-03-23T06:53:21;100724.03;;;11.92;88.50
61682;BME280;47577;43.610;25.010;2023-03-23T06:55:47;100731.25;;;11.87;88.24
61682;BME280;47577;43.610;25.010;2023-03-23T06:58:13;100725.91;;;11.87;87.07
61682;BME280;47577;43.610;25.010;2023-03-23T07:00:39;100735.44;;;11.96;86.48
61682;BME280;47577;43.610;25.010;2023-03-23T07:03:05;100738.66;;;12.05;86.66
61682;BME280;47577;43.610;25.010;2023-03-23T07:05:32;100742.25;;;12.04;85.14
61682;BME280;47577;43.610;25.010;2023-03-23T07:08:00;100742.88;;;12.11;87.42
61682;BME280;47577;43.610;25.010;2023-03-23T07:10:25;100740.72;;;12.22;87.42
61682;BME280;47577;43.610;25.010;2023-03-23T07:12:52;100744.88;;;12.31;87.83
61682;BME280;47577;43.610;25.010;2023-03-23T07:15:17;100743.34;;;12.24;87.69
61682;BME280;47577;43.610;25.010;2023-03-23T07:17:42;100742.91;;;12.36;87.54
61682;BME280;47577;43.610;25.010;2023-03-23T07:20:08;100742.50;;;12.47;87.80
61682;BME280;47577;43.610;25.010;2023-03-23T07:22:34;100746.97;;;12.47;88.29
61682;BME280;47577;43.610;25.010;2023-03-23T07:24:59;100743.34;;;12.49;88.95
61682;BME280;47577;43.610;25.010;2023-03-23T07:27:25;100747.56;;;12.55;88.29
61682;BME280;47577;43.610;25.010;2023-03-23T07:29:50;100749.75;;;12.69;85.58
61682;BME280;47577;43.610;25.010;2023-03-23T07:32:16;100751.88;;;12.59;83.63
61682;BME280;47577;43.610;25.010;2023-03-23T07:34:43;100745.03;;;12.75;86.05
61682;BME280;47577;43.610;25.010;2023-03-23T07:37:09;100751.81;;;12.84;89.23
61682;BME280;47577;43.610;25.010;2023-03-23T07:39:34;100752.16;;;12.98;86.97
61682;BME280;47577;43.610;25.010;2023-03-23T07:42:00;100758.91;;;13.09;82.61
61682;BME280;47577;43.610;25.010;2023-03-23T07:44:25;100752.84;;;13.27;82.29
61682;BME280;47577;43.610;25.010;2023-03-23T07:46:51;100745.38;;;13.37;82.27
61682;BME280;47577;43.610;25.010;2023-03-23T07:49:16;100744.78;;;13.29;83.68
61682;BME280;47577;43.610;25.010;2023-03-23T07:51:42;100744.84;;;13.27;83.74
61682;BME280;47577;43.610;25.010;2023-03-23T07:54:08;100747.38;;;13.30;83.45
61682;BME280;47577;43.610;25.010;2023-03-23T07:56:34;100741.09;;;13.09;84.85
61682;BME280;47577;43.610;25.010;2023-03-23T07:59:00;100740.09;;;13.12;85.38
61682;BME280;47577;43.610;25.010;2023-03-23T08:01:27;100750.75;;;13.12;85.18
61682;BME280;47577;43.610;25.010;2023-03-23T08:03:52;100742.97;;;13.07;82.76
61682;BME280;47577;43.610;25.010;2023-03-23T08:06:19;100752.50;;;13.13;81.07
61682;BME280;47577;43.610;25.010;2023-03-23T08:08:46;100756.09;;;13.12;81.85
61682;BME280;47577;43.610;25.010;2023-03-23T08:11:11;100757.78;;;13.14;78.71
61682;BME280;47577;43.610;25.010;2023-03-23T08:13:38;100752.41;;;13.16;80.44
61682;BME280;47577;43.610;25.010;2023-03-23T08:16:04;100758.03;;;13.08;80.18
61682;BME280;47577;43.610;25.010;2023-03-23T08:18:30;100761.53;;;13.10;80.67
61682;BME280;47577;43.610;25.010;2023-03-23T08:20:56;100762.69;;;13.03;80.13
61682;BME280;47577;43.610;25.010;2023-03-23T08:23:22;100763.38;;;13.08;77.74
61682;BME280;47577;43.610;25.010;2023-03-23T08:25:47;100770.41;;;13.11;80.09
61682;BME280;47577;43.610;25.010;2023-03-23T08:28:16;100755.19;;;13.13;82.09
61682;BME280;47577;43.610;25.010;2023-03-23T08:30:42;100757.72;;;13.16;79.56
61682;BME280;47577;43.610;25.010;2023-03-23T08:33:07;100756.03;;;13.13;80.03
61682;BME280;47577;43.610;25.010;2023-03-23T08:35:35;100758.13;;;13.05;80.54
61682;BME280;47577;43.610;25.010;2023-03-23T08:38:01;100753.19;;;12.96;80.82
61682;BME280;47577;43.610;25.010;2023-03-23T08:40:26;100749.16;;;13.08;80.90
61682;BME280;47577;43.610;25.010;2023-03-23T08:42:52;100755.25;;;13.11;76.58
61682;BME280;47577;43.610;25.010;2023-03-23T08:45:20;100752.34;;;13.17;77.31
61682;BME280;47577;43.610;25.010;2023-03-23T08:47:46;100747.13;;;13.14;78.57
61682;BME280;47577;43.610;25.010;2023-03-23T08:50:18;100749.50;;;13.22;80.38
61682;BME280;47577;43.610;25.010;2023-03-23T08:52:44;100753.72;;;13.28;80.64
61682;BME280;47577;43.610;25.010;2023-03-23T08:55:10;100749.75;;;13.40;80.47
61682;BME280;47577;43.610;25.010;2023-03-23T08:57:36;100747.56;;;13.49;78.58
61682;BME280;47577;43.610;25.010;2023-03-23T09:00:05;100754.38;;;13.57;76.60
61682;BME280;47577;43.610;25.010;2023-03-23T09:02:40;100749.72;;;13.62;75.11
61682;BME280;47577;43.610;25.010;2023-03-23T09:05:08;100752.63;;;13.78;74.45
61682;BME280;47577;43.610;25.010;2023-03-23T09:07:35;100750.75;;;13.80;76.54
61682;BME280;47577;43.610;25.010;2023-03-23T09:10:01;100750.28;;;13.70;70.03
61682;BME280;47577;43.610;25.010;2023-03-23T09:12:27;100752.19;;;13.66;69.54
61682;BME280;47577;43.610;25.010;2023-03-23T09:14:53;100744.13;;;13.68;73.43
61682;BME280;47577;43.610;25.010;2023-03-23T09:17:18;100749.97;;;13.56;71.18
61682;BME280;47577;43.610;25.010;2023-03-23T09:19:43;100748.09;;;13.35;70.62
61682;BME280;47577;43.610;25.010;2023-03-23T09:22:09;100740.63;;;12.98;72.85
61682;BME280;47577;43.610;25.010;2023-03-23T09:24:34;100742.88;;;13.32;74.41
61682;BME280;47577;43.610;25.010;2023-03-23T09:27:00;100743.25;;;13.45;73.89
61682;BME280;47577;43.610;25.010;2023-03-23T09:29:26;100738.28;;;13.58;74.21
61682;BME280;47577;43.610;25.010;2023-03-23T09:31:52;100741.56;;;13.65;76.49
61682;BME280;47577;43.610;25.010;2023-03-23T09:34:18;100743.81;;;13.76;73.84
61682;BME280;47577;43.610;25.010;2023-03-23T09:36:43;100739.75;;;13.87;76.46
61682;BME280;47577;43.610;25.010;2023-03-23T09:39:09;100741.25;;;13.95;73.01
61682;BME280;47577;43.610;25.010;2023-03-23T09:44:08;100735.34;;;14.07;73.52
61682;BME280;47577;43.610;25.010;2023-03-23T09:46:48;100740.44;;;14.13;71.59
61682;BME280;47577;43.610;25.010;2023-03-23T09:49:30;100737.78;;;14.13;71.36
61682;BME280;47577;43.610;25.010;2023-03-23T09:52:00;100734.25;;;14.13;70.16
61682;BME280;47577;43.610;25.010;2023-03-23T09:54:29;100728.00;;;14.12;75.16
61682;BME280;47577;43.610;25.010;2023-03-23T09:56:57;100729.75;;;14.34;78.06
61682;BME280;47577;43.610;25.010;2023-03-23T09:59:47;100727.47;;;14.45;77.86
61682;BME280;47577;43.610;25.010;2023-03-23T10:02:14;100729.00;;;14.51;75.65
61682;BME280;47577;43.610;25.010;2023-03-23T10:04:47;100737.09;;;14.49;73.72
61682;BME280;47577;43.610;25.010;2023-03-23T10:07:17;100742.03;;;14.38;74.27
61682;BME280;47577;43.610;25.010;2023-03-23T10:09:44;100733.16;;;14.58;75.16
61682;BME280;47577;43.610;25.010;2023-03-23T10:22:38;100730.81;;;14.09;71.56
61682;BME280;47577;43.610;25.010;2023-03-23T10:35:03;100735.00;;;14.76;73.31
61682;BME280;47577;43.610;25.010;2023-03-23T10:37:36;100732.03;;;14.83;71.72
61682;BME280;47577;43.610;25.010;2023-03-23T10:40:03;100731.97;;;14.84;69.01
61682;BME280;47577;43.610;25.010;2023-03-23T10:42:35;100714.25;;;14.81;74.13
61682;BME280;47577;43.610;25.010;2023-03-23T10:45:22;100714.59;;;14.93;71.78
61682;BME280;47577;43.610;25.010;2023-03-23T10:50:32;100706.06;;;15.04;71.83
61682;BME280;47577;43.610;25.010;2023-03-23T10:52:59;100705.72;;;14.92;72.22
61682;BME280;47577;43.610;25.010;2023-03-23T10:55:35;100706.56;;;14.93;72.16
61682;BME280;47577;43.610;25.010;2023-03-23T10:58:05;100706.16;;;15.02;70.57
61682;BME280;47577;43.610;25.010;2023-03-23T11:00:30;100710.13;;;15.12;72.88
61682;BME280;47577;43.610;25.010;2023-03-23T11:03:01;100703.13;;;15.27;71.34
61682;BME280;47577;43.610;25.010;2023-03-23T11:05:38;100704.81;;;15.30;72.06
61682;BME280;47577;43.610;25.010;2023-03-23T11:08:15;100705.88;;;15.08;68.08
61682;BME280;47577;43.610;25.010;2023-03-23T11:13:17;100704.63;;;15.15;68.36
61682;BME280;47577;43.610;25.010;2023-03-23T11:15:44;100706.25;;;15.37;68.03
61682;BME280;47577;43.610;25.010;2023-03-23T11:20:40;100697.63;;;15.13;63.77
61682;BME280;47577;43.610;25.010;2023-03-23T11:23:11;100691.97;;;15.36;66.04
61682;BME280;47577;43.610;25.010;2023-03-23T11:28:33;100681.69;;;14.91;66.62
61682;BME280;47577;43.610;25.010;2023-03-23T11:31:00;100676.25;;;14.73;67.02
61682;BME280;47577;43.610;25.010;2023-03-23T11:33:30;100681.47;;;14.56;68.71
61682;BME280;47577;43.610;25.010;2023-03-23T11:35:56;100679.16;;;14.69;67.96
61682;BME280;47577;43.610;25.010;2023-03-23T11:38:22;100686.66;;;14.40;67.16
61682;BME280;47577;43.610;25.010;2023-03-23T11:40:51;100682.63;;;14.11;67.53
61682;BME280;47577;43.610;25.010;2023-03-23T11:43:21;100682.91;;;14.44;69.94
61682;BME280;47577;43.610;25.010;2023-03-23T11:48:34;100672.88;;;13.89;71.19
61682;BME280;47577;43.610;25.010;2023-03-23T11:53:33;100672.28;;;14.03;72.12
61682;BME280;47577;43.610;25.010;2023-03-23T11:58:35;100671.44;;;14.42;70.56
61682;BME280;47577;43.610;25.010;2023-03-23T12:01:43;100671.28;;;14.45;68.68
61682;BME280;47577;43.610;25.010;2023-03-23T12:03:57;100668.94;;;14.77;70.45
61682;BME280;47577;43.610;25.010;2023-03-23T12:08:59;100665.63;;;14.91;69.75
61682;BME280;47577;43.610;25.010;2023-03-23T12:14:07;100664.81;;;15.08;65.37
61682;BME280;47577;43.610;25.010;2023-03-23T12:21:52;100659.69;;;15.76;63.44
61682;BME280;47577;43.610;25.010;2023-03-23T12:24:24;100656.47;;;15.50;61.69
61682;BME280;47577;43.610;25.010;2023-03-23T12:26:56;100649.94;;;15.56;64.27
61682;BME280;47577;43.610;25.010;2023-03-23T12:32:19;100654.38;;;15.75;63.63
61682;BME280;47577;43.610;25.010;2023-03-23T12:34:53;100654.63;;;15.87;61.90
61682;BME280;47577;43.610;25.010;2023-03-23T12:37:27;100639.88;;;15.96;64.77
61682;BME280;47577;43.610;25.010;2023-03-23T12:47:50;100635.25;;;16.16;63.44
61682;BME280;47577;43.610;25.010;2023-03-23T12:50:35;100627.63;;;16.08;60.08
61682;BME280;47577;43.610;25.010;2023-03-23T12:55:44;100613.28;;;16.58;65.13
61682;BME280;47577;43.610;25.010;2023-03-23T12:58:21;100621.16;;;16.77;63.65
61682;BME280;47577;43.610;25.010;2023-03-23T13:01:10;100612.16;;;17.10;62.46
61682;BME280;47577;43.610;25.010;2023-03-23T13:06:37;100613.56;;;17.02;58.25
61682;BME280;47577;43.610;25.010;2023-03-23T13:11:38;100606.28;;;17.04;57.29
61682;BME280;47577;43.610;25.010;2023-03-23T13:14:16;100604.69;;;17.31;57.13
61682;BME280;47577;43.610;25.010;2023-03-23T13:16:49;100593.28;;;17.72;57.79
61682;BME280;47577;43.610;25.010;2023-03-23T13:20:02;100593.84;;;17.94;60.47
61682;BME280;47577;43.610;25.010;2023-03-23T13:24:33;100599.44;;;18.19;54.18
61682;BME280;47577;43.610;25.010;2023-03-23T13:27:01;100588.25;;;18.40;58.75
61682;BME280;47577;43.610;25.010;2023-03-23T13:29:26;100591.44;;;18.47;58.16
61682;BME280;47577;43.610;25.010;2023-03-23T13:32:04;100584.31;;;18.31;56.34
61682;BME280;47577;43.610;25.010;2023-03-23T13:34:30;100587.59;;;17.93;55.56
61682;BME280;47577;43.610;25.010;2023-03-23T13:36:57;100589.13;;;17.67;57.72
61682;BME280;47577;43.610;25.010;2023-03-23T13:39:33;100594.38;;;17.40;58.10
61682;BME280;47577;43.610;25.010;2023-03-23T13:44:26;100586.38;;;17.08;60.15
61682;BME280;47577;43.610;25.010;2023-03-23T13:47:05;100586.97;;;16.97;61.52
61682;BME280;47577;43.610;25.010;2023-03-23T13:49:32;100586.19;;;16.79;61.48
61682;BME280;47577;43.610;25.010;2023-03-23T13:52:18;100591.63;;;16.77;61.51
61682;BME280;47577;43.610;25.010;2023-03-23T13:54:47;100590.25;;;16.70;61.84
61682;BME280;47577;43.610;25.010;2023-03-23T14:00:24;100596.41;;;16.56;62.57
61682;BME280;47577;43.610;25.010;2023-03-23T14:02:57;100595.53;;;16.56;62.30
61682;BME280;47577;43.610;25.010;2023-03-23T14:05:27;100592.22;;;16.67;63.31
61682;BME280;47577;43.610;25.010;2023-03-23T14:07:57;100587.75;;;16.83;62.49
61682;BME280;47577;43.610;25.010;2023-03-23T14:10:25;100584.44;;;16.78;60.86
61682;BME280;47577;43.610;25.010;2023-03-23T14:12:56;100584.91;;;16.70;60.74
61682;BME280;47577;43.610;25.010;2023-03-23T14:15:27;100580.72;;;16.64;61.53
61682;BME280;47577;43.610;25.010;2023-03-23T14:17:53;100579.25;;;16.59;60.81
61682;BME280;47577;43.610;25.010;2023-03-23T14:20:32;100580.53;;;16.52;59.89